Wagontown, Pennsylvania
Current Conditions -  °F | °C
As of 9:35 AM on Saturday 25 Oct 2014 (Local Time) from KMQS Reporting Station
Clear Clear  
Wind Chill: 54°   Ceiling: Unl
Heat Index: 54°   Visibility: 10mi
Dew Point: 41°   Wind: 12mph
Humidity: 62%   Direction: 290°WNW
Pressure: 29.93"   Gusts: NA
Location:  40.01°N, 75.84°W
Report Text: KMQS 251335Z AUTO 29010KT 10SM CLR 12/05 A2993 RMK AO2
Loading
Personal Weather Stations






























Interactive Weather Map
Tropical Storm Tracking
New forecast layout! Learn more

10-Day Weather Forecast

Advertisements
Track Severe Weather on mobile